Kenyon, Minnesota
Current Conditions -  °F | °C
As of 11:14 PM on Sunday 19 Oct 2014 (Local Time) from KSYN Reporting Station
Clear Clear  
Wind Chill: 54°   Ceiling: Unl
Heat Index: 54°   Visibility: 10mi
Dew Point: 43°   Wind: 8mph
Humidity: 66%   Direction: 310°NW
Pressure: 29.83"   Gusts: NA
Location:  44.27°N, 92.99°W
Report Text: KSYN 200414Z AUTO 31007KT 10SM CLR 12/06 A2983 RMK AO2 T01210060
Loading
Personal Weather Stations






























Interactive Weather Map New forecast layout! Learn more

10-Day Weather Forecast

Advertisements
Track Severe Weather on mobile